Time;durP1;ratioP1;P1;durP2;ratioP2;P2;SDS_P1;SDS_P2;PMS_P1;PMS_P2;Temp;Humidity;BMP_temperature;BMP_pressure;BME280_temperature;BME280_humidity;BME280_pressure;Samples;Min_cycle;Max_cycle;Signal;HPM_P1;HPM_P2
2024/02/07 00:00:18;;;;;;;9.00;4.30;;;9.30;99.90;;;;;;4977634;28;20588;-72
2024/02/07 00:03:04;;;;;;;8.80;4.40;;;9.30;99.90;;;;;;4980726;28;20474;-71
2024/02/07 00:05:49;;;;;;;7.53;3.93;;;9.30;99.90;;;;;;4987820;28;20592;-72
2024/02/07 00:08:35;;;;;;;9.90;4.90;;;9.30;99.90;;;;;;4984718;28;20460;-71
2024/02/07 00:11:21;;;;;;;7.27;4.90;;;9.20;99.90;;;;;;4986211;28;20475;-71
2024/02/07 00:14:07;;;;;;;8.10;4.60;;;9.20;99.90;;;;;;4981669;28;20540;-70
2024/02/07 00:16:56;;;;;;;8.97;4.10;;;9.30;99.90;;;;;;4981691;28;20537;-71
2024/02/07 00:19:41;;;;;;;7.63;4.93;;;9.30;99.90;;;;;;4977671;28;20433;-71
2024/02/07 00:22:26;;;;;;;11.73;5.20;;;9.30;99.90;;;;;;4977256;28;20458;-71
2024/02/07 00:25:12;;;;;;;5.37;4.33;;;9.30;99.90;;;;;;4980472;28;20449;-71
2024/02/07 00:27:58;;;;;;;8.90;5.37;;;9.30;99.90;;;;;;4985262;28;20584;-71
2024/02/07 00:30:43;;;;;;;7.07;4.83;;;9.30;99.90;;;;;;4987593;28;20520;-71
2024/02/07 00:33:30;;;;;;;10.93;4.90;;;9.30;99.90;;;;;;4987697;28;20843;-70
2024/02/07 00:36:17;;;;;;;8.57;5.07;;;9.30;99.90;;;;;;4983735;28;20810;-71
2024/02/07 00:39:02;;;;;;;8.67;5.03;;;9.30;99.90;;;;;;4981359;28;20445;-71
2024/02/07 00:41:48;;;;;;;7.87;4.77;;;9.30;99.90;;;;;;4980968;28;20431;-72
2024/02/07 00:44:33;;;;;;;9.00;5.10;;;9.30;99.90;;;;;;4981155;28;20444;-71
2024/02/07 00:47:19;;;;;;;9.80;4.67;;;9.30;99.90;;;;;;4982539;28;21015;-71
2024/02/07 00:50:07;;;;;;;7.30;4.17;;;9.30;99.90;;;;;;4986170;28;20456;-71
2024/02/07 00:52:53;;;;;;;7.40;5.37;;;9.30;99.90;;;;;;4983875;28;20468;-71
2024/02/07 00:55:39;;;;;;;10.17;5.20;;;9.30;99.90;;;;;;4982365;28;20445;-71
2024/02/07 00:58:24;;;;;;;8.47;5.47;;;9.20;99.90;;;;;;4979321;28;20469;-71
2024/02/07 01:01:11;;;;;;;13.37;5.40;;;9.20;99.90;;;;;;4987449;28;20584;-70
2024/02/07 01:03:57;;;;;;;7.40;4.90;;;9.30;99.90;;;;;;4985991;28;20466;-71
2024/02/07 01:06:44;;;;;;;10.70;5.10;;;9.30;99.90;;;;;;4983123;28;20428;-71
2024/02/07 01:09:29;;;;;;;13.27;5.00;;;9.20;99.90;;;;;;4981977;28;20951;-71
2024/02/07 01:12:16;;;;;;;11.23;5.07;;;9.20;99.90;;;;;;4986961;28;21079;-71
2024/02/07 01:15:02;;;;;;;11.47;4.47;;;9.20;99.90;;;;;;4992544;28;20480;-71
2024/02/07 01:17:48;;;;;;;6.50;4.70;;;9.30;99.90;;;;;;4987305;28;20423;-71
2024/02/07 01:20:33;;;;;;;12.23;5.70;;;9.30;99.90;;;;;;4989672;28;20452;-71
2024/02/07 01:23:21;;;;;;;11.10;5.17;;;9.30;99.90;;;;;;4984466;28;20439;-71
2024/02/07 01:26:07;;;;;;;9.90;5.20;;;9.30;99.90;;;;;;4989650;28;20604;-71
2024/02/07 01:28:53;;;;;;;17.30;5.23;;;9.30;99.90;;;;;;4991891;28;20453;-71
2024/02/07 01:31:38;;;;;;;9.63;5.13;;;9.30;99.90;;;;;;4987356;28;20979;-71
2024/02/07 01:34:24;;;;;;;10.30;5.00;;;9.30;99.90;;;;;;4986567;28;20456;-71
2024/02/07 01:37:10;;;;;;;8.57;6.20;;;9.30;99.90;;;;;;4986464;28;20526;-71
2024/02/07 01:39:57;;;;;;;16.37;5.17;;;9.30;99.90;;;;;;4987235;28;20532;-71
2024/02/07 01:42:44;;;;;;;7.73;5.07;;;9.30;99.90;;;;;;4988039;28;20493;-71
2024/02/07 01:45:30;;;;;;;7.50;4.93;;;9.30;99.90;;;;;;5012169;23;20484;-74
2024/02/07 01:48:16;;;;;;;8.47;4.80;;;9.30;99.90;;;;;;4999986;28;20448;-73
2024/02/07 01:51:04;;;;;;;10.27;4.70;;;9.30;99.90;;;;;;4996419;28;20431;-74
2024/02/07 01:53:50;;;;;;;9.00;5.33;;;9.30;99.90;;;;;;5000628;28;20571;-74
2024/02/07 01:56:37;;;;;;;12.00;4.70;;;9.20;99.90;;;;;;5002321;28;20490;-74
2024/02/07 01:59:22;;;;;;;6.97;4.30;;;9.20;99.90;;;;;;4998406;28;20463;-74
2024/02/07 02:02:08;;;;;;;7.77;4.60;;;9.20;99.90;;;;;;4993856;28;20572;-74
2024/02/07 02:04:54;;;;;;;9.67;5.30;;;9.20;99.90;;;;;;5002572;28;20839;-74
2024/02/07 02:07:39;;;;;;;8.83;5.00;;;9.10;99.90;;;;;;4998278;28;20804;-74
2024/02/07 02:10:25;;;;;;;7.63;4.60;;;9.10;99.90;;;;;;5000773;28;20509;-74
2024/02/07 02:13:12;;;;;;;10.20;5.00;;;9.20;99.90;;;;;;5003507;28;20444;-74
2024/02/07 02:15:58;;;;;;;8.30;5.40;;;9.20;99.90;;;;;;4993274;28;20478;-73
2024/02/07 02:18:44;;;;;;;7.33;4.80;;;9.10;99.90;;;;;;4995497;28;20494;-74
2024/02/07 02:21:36;;;;;;;11.93;6.27;;;9.20;99.90;;;;;;4999916;28;21068;-74
2024/02/07 02:24:41;;;;;;;6.00;4.10;;;9.20;99.90;;;;;;5000146;28;20468;-73
2024/02/07 02:27:39;;;;;;;12.87;4.70;;;9.20;99.90;;;;;;5006492;28;20851;-74
2024/02/07 02:30:33;;;;;;;9.17;5.07;;;9.20;99.90;;;;;;4997102;28;20584;-74
2024/02/07 02:33:20;;;;;;;9.40;4.67;;;9.10;99.90;;;;;;4995527;28;20522;-74
2024/02/07 02:36:08;;;;;;;10.97;5.10;;;9.10;99.90;;;;;;5002922;28;20700;-74
2024/02/07 02:38:54;;;;;;;7.83;4.50;;;9.10;99.90;;;;;;5002655;28;20457;-74
2024/02/07 02:41:39;;;;;;;6.97;4.37;;;9.10;99.90;;;;;;4990362;28;20461;-74
2024/02/07 02:44:26;;;;;;;12.20;4.20;;;9.10;99.90;;;;;;4998166;28;20605;-74
2024/02/07 02:47:14;;;;;;;6.83;4.50;;;9.10;99.90;;;;;;4995914;28;20450;-74
2024/02/07 02:50:00;;;;;;;8.23;4.80;;;9.10;99.90;;;;;;5003274;28;20516;-74
2024/02/07 02:52:46;;;;;;;8.20;4.83;;;9.10;99.90;;;;;;4998610;28;20456;-74
2024/02/07 02:55:31;;;;;;;6.40;4.57;;;9.10;99.90;;;;;;4996932;28;20548;-74
2024/02/07 02:58:18;;;;;;;7.30;3.70;;;9.10;99.90;;;;;;5000409;28;20445;-74
2024/02/07 03:01:04;;;;;;;7.03;4.17;;;9.10;99.90;;;;;;4999163;28;20923;-74
2024/02/07 03:03:54;;;;;;;8.10;5.27;;;9.10;99.90;;;;;;5000796;28;20536;-74
2024/02/07 03:06:58;;;;;;;12.00;5.30;;;9.00;99.90;;;;;;4989854;28;20492;-74
2024/02/07 03:09:49;;;;;;;8.53;5.20;;;9.10;99.90;;;;;;4996425;28;21042;-74
2024/02/07 03:12:35;;;;;;;7.47;4.43;;;9.10;99.90;;;;;;4997628;28;20452;-74
2024/02/07 03:15:21;;;;;;;12.37;4.70;;;9.10;99.90;;;;;;4996783;28;20462;-73
2024/02/07 03:18:07;;;;;;;9.20;4.60;;;9.10;99.90;;;;;;4993843;28;20794;-74
2024/02/07 03:20:54;;;;;;;10.47;4.80;;;9.20;99.90;;;;;;4995853;28;20817;-74
2024/02/07 03:23:39;;;;;;;10.37;5.00;;;9.20;99.90;;;;;;4992960;28;20830;-74
2024/02/07 03:26:25;;;;;;;9.63;4.50;;;9.20;99.90;;;;;;4998226;28;20820;-74
2024/02/07 03:29:10;;;;;;;6.70;4.37;;;9.30;99.90;;;;;;5003422;28;20450;-73
2024/02/07 03:31:56;;;;;;;8.53;5.00;;;9.30;99.90;;;;;;5001055;28;20829;-74
2024/02/07 03:34:44;;;;;;;8.07;4.40;;;9.30;99.90;;;;;;5000234;28;21131;-74
2024/02/07 03:37:31;;;;;;;9.03;4.47;;;9.30;99.90;;;;;;5001450;28;20451;-74
2024/02/07 03:40:18;;;;;;;9.43;4.13;;;9.20;99.90;;;;;;4996165;28;20457;-74
2024/02/07 03:43:06;;;;;;;5.70;3.87;;;9.20;99.90;;;;;;4991539;28;20973;-74
2024/02/07 03:45:52;;;;;;;5.80;4.33;;;9.20;99.90;;;;;;5006860;28;20473;-74
2024/02/07 03:48:38;;;;;;;6.40;3.87;;;9.10;99.90;;;;;;4997197;28;20445;-74
2024/02/07 03:51:27;;;;;;;6.87;4.80;;;9.10;99.90;;;;;;5000072;28;20469;-74
2024/02/07 03:54:14;;;;;;;8.83;4.30;;;9.20;99.90;;;;;;4989056;28;20479;-74
2024/02/07 03:57:00;;;;;;;6.63;4.80;;;9.20;99.90;;;;;;4984564;28;20484;-74
2024/02/07 03:59:46;;;;;;;8.83;5.13;;;9.20;99.90;;;;;;4985436;28;20495;-73
2024/02/07 04:02:32;;;;;;;6.87;5.30;;;9.20;99.90;;;;;;4986022;28;20456;-73
2024/02/07 04:05:18;;;;;;;16.17;5.00;;;9.20;99.90;;;;;;4987701;28;20466;-74
2024/02/07 04:08:05;;;;;;;9.00;4.90;;;9.20;99.90;;;;;;4984923;28;20513;-73
2024/02/07 04:10:54;;;;;;;7.07;4.40;;;9.20;99.90;;;;;;4985782;28;21095;-74
2024/02/07 05:17:32;;;;;;;12.30;5.37;;;9.70;99.90;;;;;;5002820;28;21086;-74
2024/02/07 05:20:17;;;;;;;9.83;6.60;;;9.70;99.90;;;;;;4987516;28;20449;-74
2024/02/07 05:23:03;;;;;;;9.60;5.10;;;9.70;99.90;;;;;;4987721;28;20480;-74
2024/02/07 05:25:49;;;;;;;12.63;5.90;;;9.70;99.90;;;;;;4991713;28;20470;-74
2024/02/07 05:28:36;;;;;;;16.80;5.80;;;9.70;99.90;;;;;;4988551;28;20524;-74
2024/02/07 05:31:23;;;;;;;10.17;5.50;;;9.70;99.90;;;;;;4989076;28;20445;-74
2024/02/07 05:34:08;;;;;;;18.90;5.33;;;9.70;99.90;;;;;;4986682;28;20823;-74
2024/02/07 05:36:54;;;;;;;19.93;5.90;;;9.70;99.90;;;;;;4989377;28;20505;-74
2024/02/07 05:39:40;;;;;;;12.63;5.43;;;9.60;99.90;;;;;;4988121;28;20457;-74
2024/02/07 05:42:25;;;;;;;14.40;5.57;;;9.60;99.90;;;;;;4992304;28;20454;-74
2024/02/07 05:45:11;;;;;;;11.57;5.70;;;9.60;99.90;;;;;;4992548;28;20599;-74
2024/02/07 05:47:58;;;;;;;13.47;6.27;;;9.70;99.90;;;;;;4992462;28;20572;-74
2024/02/07 05:50:44;;;;;;;6.63;4.83;;;9.70;99.90;;;;;;4992760;28;20447;-74
2024/02/07 05:53:30;;;;;;;9.13;4.93;;;9.70;99.90;;;;;;5002149;28;20989;-74
2024/02/07 05:56:16;;;;;;;10.23;5.50;;;9.70;99.90;;;;;;4987760;28;20834;-74
2024/02/07 05:59:02;;;;;;;10.13;5.60;;;9.70;99.90;;;;;;4998432;28;20444;-74
2024/02/07 06:01:48;;;;;;;11.83;5.17;;;9.70;99.90;;;;;;4999539;28;20814;-74
2024/02/07 06:04:35;;;;;;;13.00;5.50;;;9.70;99.90;;;;;;5006633;28;20450;-73
2024/02/07 06:07:21;;;;;;;9.23;4.97;;;9.80;99.90;;;;;;4994074;28;20423;-74
2024/02/07 06:10:07;;;;;;;8.10;5.37;;;9.80;99.90;;;;;;4999096;28;20452;-73
2024/02/07 06:12:53;;;;;;;7.27;4.73;;;9.70;99.90;;;;;;4992739;28;20526;-74
2024/02/07 06:15:39;;;;;;;8.47;6.17;;;9.70;99.90;;;;;;4993384;28;20499;-73
2024/02/07 06:18:25;;;;;;;16.33;5.60;;;9.70;99.90;;;;;;4987089;28;21133;-73
2024/02/07 06:21:12;;;;;;;15.67;5.87;;;9.80;99.90;;;;;;4990485;28;20987;-74
2024/02/07 06:23:57;;;;;;;7.50;5.70;;;9.70;99.90;;;;;;4991192;28;21079;-74
2024/02/07 06:26:43;;;;;;;10.30;4.73;;;9.70;99.90;;;;;;4990931;28;21104;-74
2024/02/07 06:29:29;;;;;;;7.50;5.30;;;9.60;99.90;;;;;;4985655;28;20998;-74
2024/02/07 06:32:14;;;;;;;12.27;5.20;;;9.60;99.90;;;;;;4987659;28;20451;-74
2024/02/07 06:35:00;;;;;;;13.30;5.73;;;9.60;99.90;;;;;;4985408;28;21037;-73
2024/02/07 06:37:47;;;;;;;7.17;4.40;;;9.60;99.90;;;;;;4989204;28;20457;-74
2024/02/07 06:40:32;;;;;;;7.37;4.90;;;9.70;99.90;;;;;;4998071;28;21007;-74
2024/02/07 06:43:18;;;;;;;10.07;5.30;;;9.60;99.90;;;;;;4994210;28;20970;-74
2024/02/07 06:46:04;;;;;;;7.20;4.73;;;9.70;99.90;;;;;;4996722;28;21089;-74
2024/02/07 06:48:50;;;;;;;5.43;4.20;;;9.70;99.90;;;;;;5004034;28;20452;-74
2024/02/07 06:51:35;;;;;;;8.97;4.93;;;9.60;99.90;;;;;;4999457;28;20977;-74
2024/02/07 06:54:22;;;;;;;9.50;4.47;;;9.70;99.90;;;;;;4999605;28;20823;-74
2024/02/07 06:57:08;;;;;;;8.97;5.03;;;9.60;99.90;;;;;;4999300;28;20569;-74
2024/02/07 06:59:54;;;;;;;12.13;4.70;;;9.60;99.90;;;;;;5000181;28;20988;-74
2024/02/07 07:02:39;;;;;;;15.80;6.37;;;9.60;99.90;;;;;;5005013;28;20446;-73
2024/02/07 07:05:25;;;;;;;9.03;5.20;;;9.60;99.90;;;;;;4992262;28;20473;-74
2024/02/07 07:08:11;;;;;;;9.33;4.67;;;9.60;99.90;;;;;;4998934;28;20452;-74
2024/02/07 07:10:58;;;;;;;10.60;5.10;;;9.60;99.90;;;;;;5002034;28;20990;-73
2024/02/07 07:13:44;;;;;;;10.00;6.00;;;9.60;99.90;;;;;;5005946;28;20447;-75
2024/02/07 07:16:29;;;;;;;6.60;4.77;;;9.60;99.90;;;;;;4994365;28;20703;-74
2024/02/07 07:19:16;;;;;;;6.77;4.93;;;9.60;99.90;;;;;;4998967;28;20548;-74
2024/02/07 07:22:02;;;;;;;12.13;5.37;;;9.60;99.90;;;;;;5002140;28;20451;-74
2024/02/07 07:24:48;;;;;;;12.53;5.50;;;9.60;99.90;;;;;;5001835;28;20459;-74
2024/02/07 07:27:34;;;;;;;13.33;5.17;;;9.60;99.90;;;;;;4993041;28;20557;-74
2024/02/07 07:30:20;;;;;;;10.30;6.10;;;9.60;99.90;;;;;;4994822;28;20432;-74
2024/02/07 07:33:05;;;;;;;9.53;5.13;;;9.60;99.90;;;;;;4995890;28;20452;-74
2024/02/07 07:35:51;;;;;;;8.47;6.20;;;9.60;99.90;;;;;;4998463;28;20498;-74
2024/02/07 07:38:38;;;;;;;13.30;5.47;;;9.70;99.90;;;;;;4996159;28;20784;-73
2024/02/07 07:41:24;;;;;;;14.27;5.13;;;9.70;99.90;;;;;;4991395;28;20445;-74
2024/02/07 07:44:11;;;;;;;16.23;7.00;;;9.70;99.90;;;;;;4998034;28;20488;-73
2024/02/07 07:46:56;;;;;;;7.83;4.90;;;9.70;99.90;;;;;;4998980;28;21010;-73
2024/02/07 07:49:42;;;;;;;8.53;4.63;;;9.70;99.90;;;;;;5003805;28;20456;-73
2024/02/07 07:52:28;;;;;;;8.10;4.70;;;9.70;99.90;;;;;;4991482;28;20955;-73
2024/02/07 07:55:15;;;;;;;8.80;5.20;;;9.80;99.90;;;;;;5000265;28;20446;-73
2024/02/07 07:58:00;;;;;;;13.20;5.77;;;9.80;99.90;;;;;;5002499;28;20459;-73
2024/02/07 08:00:47;;;;;;;8.63;5.10;;;9.70;99.90;;;;;;4999326;28;20971;-73
2024/02/07 08:03:33;;;;;;;9.50;6.03;;;9.70;99.90;;;;;;5008908;28;20511;-73
2024/02/07 08:06:19;;;;;;;10.70;6.20;;;9.70;99.90;;;;;;5005618;28;20427;-73
2024/02/07 08:09:04;;;;;;;7.30;4.83;;;9.80;99.90;;;;;;5011369;28;20909;-73
2024/02/07 08:11:50;;;;;;;16.40;9.47;;;9.70;99.90;;;;;;5011162;28;20430;-73
2024/02/07 08:14:36;;;;;;;14.47;5.97;;;9.70;99.90;;;;;;5005454;28;21026;-73
2024/02/07 08:17:23;;;;;;;6.67;4.27;;;9.70;99.90;;;;;;5011500;28;20472;-73
2024/02/07 08:20:09;;;;;;;11.80;6.73;;;9.70;99.90;;;;;;5010663;28;20424;-73
2024/02/07 08:22:55;;;;;;;9.67;5.10;;;9.80;99.90;;;;;;5011063;28;20434;-73
2024/02/07 08:25:40;;;;;;;13.00;5.10;;;9.80;99.90;;;;;;5005854;28;20460;-73
2024/02/07 08:28:26;;;;;;;15.53;5.67;;;9.80;99.90;;;;;;5011276;28;20447;-73
2024/02/07 08:31:14;;;;;;;8.17;5.37;;;9.80;99.90;;;;;;5004293;28;20533;-73
2024/02/07 08:34:01;;;;;;;9.80;5.47;;;9.80;99.90;;;;;;5007982;28;20454;-73
2024/02/07 08:36:47;;;;;;;8.37;4.90;;;9.80;99.90;;;;;;5003515;28;20476;-74
2024/02/07 08:39:32;;;;;;;12.50;5.07;;;9.90;99.90;;;;;;5010806;28;20405;-73
2024/02/07 08:42:18;;;;;;;8.50;5.30;;;9.90;99.90;;;;;;5009079;28;20405;-73
2024/02/07 08:45:04;;;;;;;7.67;4.80;;;9.80;99.90;;;;;;5010748;28;20594;-73
2024/02/07 08:47:50;;;;;;;10.90;5.23;;;9.90;99.90;;;;;;5004454;28;20432;-74
2024/02/07 08:50:36;;;;;;;11.10;5.40;;;9.90;99.90;;;;;;5010775;28;20440;-73
2024/02/07 08:53:22;;;;;;;9.33;5.13;;;9.90;99.90;;;;;;4997222;28;20584;-73
2024/02/07 08:56:09;;;;;;;9.47;4.93;;;9.90;99.90;;;;;;5003503;28;20471;-73
2024/02/07 08:58:54;;;;;;;9.80;5.03;;;9.90;99.90;;;;;;5010586;28;20809;-73
2024/02/07 09:01:40;;;;;;;10.03;4.90;;;9.90;99.90;;;;;;5010624;28;20869;-74
2024/02/07 09:04:26;;;;;;;8.40;4.67;;;10.00;99.90;;;;;;5003791;28;21012;-73
2024/02/07 09:07:13;;;;;;;10.30;5.57;;;9.90;99.90;;;;;;5010828;28;20420;-73
2024/02/07 09:09:59;;;;;;;7.83;4.57;;;9.90;99.90;;;;;;5010520;28;20525;-73
2024/02/07 09:12:44;;;;;;;16.10;5.70;;;10.00;99.90;;;;;;5010302;28;20434;-73
2024/02/07 09:15:30;;;;;;;9.37;5.37;;;10.00;99.90;;;;;;5010739;28;20829;-73
2024/02/07 09:18:15;;;;;;;9.17;4.70;;;10.00;99.90;;;;;;5005581;28;20804;-73
2024/02/07 09:21:01;;;;;;;11.77;5.10;;;10.00;99.90;;;;;;4995289;28;20458;-73
2024/02/07 09:23:48;;;;;;;12.80;4.90;;;10.10;99.90;;;;;;4993116;28;20437;-73
2024/02/07 09:26:34;;;;;;;7.77;4.37;;;10.10;99.90;;;;;;5010272;28;20425;-73
2024/02/07 09:29:20;;;;;;;13.50;4.70;;;10.10;99.90;;;;;;5010917;28;20887;-73
2024/02/07 09:32:06;;;;;;;11.40;5.70;;;10.10;99.90;;;;;;5010701;28;20758;-74
2024/02/07 09:34:52;;;;;;;9.00;5.27;;;10.10;99.90;;;;;;5011128;28;20455;-73
2024/02/07 09:37:37;;;;;;;9.97;5.00;;;10.10;99.90;;;;;;5003751;28;20564;-74
2024/02/07 09:40:24;;;;;;;12.30;5.93;;;10.20;99.90;;;;;;5002687;28;20443;-73
2024/02/07 09:43:11;;;;;;;14.70;5.30;;;10.20;99.90;;;;;;5006623;28;20916;-73
2024/02/07 09:45:58;;;;;;;9.53;5.37;;;10.20;99.90;;;;;;5014089;28;21021;-73
2024/02/07 09:48:44;;;;;;;8.80;5.50;;;10.20;99.90;;;;;;5013820;28;20514;-73
2024/02/07 09:51:30;;;;;;;12.13;4.97;;;10.20;99.90;;;;;;5013843;28;20519;-73
2024/02/07 09:54:19;;;;;;;11.43;5.00;;;10.20;99.90;;;;;;5007056;28;20498;-73
2024/02/07 09:57:06;;;;;;;8.27;4.90;;;10.20;99.90;;;;;;5005982;28;20487;-74
2024/02/07 09:59:52;;;;;;;14.23;6.20;;;10.30;99.90;;;;;;5010731;28;20468;-74
2024/02/07 10:02:44;;;;;;;11.03;6.30;;;10.30;99.90;;;;;;5013611;28;20436;-73
2024/02/07 10:05:32;;;;;;;9.10;5.03;;;10.30;99.90;;;;;;5013718;28;20448;-74
2024/02/07 10:08:17;;;;;;;16.40;5.97;;;10.30;99.90;;;;;;5013327;28;20811;-73
2024/02/07 10:11:05;;;;;;;13.07;5.40;;;10.30;99.90;;;;;;5013542;28;20431;-74
2024/02/07 10:13:51;;;;;;;9.10;4.60;;;10.30;99.90;;;;;;5010299;28;20440;-74
2024/02/07 10:16:37;;;;;;;8.80;4.90;;;10.30;99.90;;;;;;5013282;28;20478;-74
2024/02/07 10:19:23;;;;;;;12.83;4.63;;;10.30;99.90;;;;;;5013642;28;20435;-73
2024/02/07 10:22:16;;;;;;;8.43;4.03;;;10.30;99.90;;;;;;5013101;28;20423;-73
2024/02/07 10:25:04;;;;;;;9.00;4.17;;;10.40;99.90;;;;;;5008260;28;20455;-73
2024/02/07 10:27:50;;;;;;;9.50;4.57;;;10.40;99.90;;;;;;5013321;28;20911;-74
2024/02/07 10:30:37;;;;;;;7.60;4.20;;;10.40;99.90;;;;;;5006790;28;20432;-74
2024/02/07 10:33:23;;;;;;;9.57;4.10;;;10.50;99.90;;;;;;4993984;28;20499;-73
2024/02/07 10:36:10;;;;;;;11.30;3.97;;;10.50;99.90;;;;;;4998737;28;20680;-74
2024/02/07 10:39:02;;;;;;;8.90;3.40;;;10.50;99.90;;;;;;5011693;28;21081;-74
2024/02/07 10:41:48;;;;;;;8.20;3.80;;;10.50;99.90;;;;;;5011182;28;20432;-73
2024/02/07 10:44:33;;;;;;;6.67;3.53;;;10.60;99.90;;;;;;5012158;28;20467;-73
2024/02/07 10:47:20;;;;;;;9.43;3.87;;;10.60;99.90;;;;;;5006329;28;20829;-74
2024/02/07 10:50:10;;;;;;;4.53;3.17;;;10.60;99.90;;;;;;5012895;28;20907;-73
2024/02/07 10:52:55;;;;;;;8.57;3.40;;;10.60;99.90;;;;;;5012336;28;20432;-74
2024/02/07 10:55:41;;;;;;;8.70;3.83;;;10.60;99.90;;;;;;4999864;28;20446;-73
2024/02/07 10:58:29;;;;;;;8.27;2.80;;;10.60;99.90;;;;;;5003592;28;20424;-73
2024/02/07 11:01:15;;;;;;;5.97;3.17;;;10.70;99.90;;;;;;5012812;28;20453;-74
2024/02/07 11:04:02;;;;;;;4.70;3.00;;;10.70;99.90;;;;;;4995146;28;21065;-73
2024/02/07 11:06:48;;;;;;;5.53;3.17;;;10.80;99.90;;;;;;5003073;28;20514;-73
2024/02/07 11:09:36;;;;;;;5.20;3.53;;;10.70;99.90;;;;;;4995410;28;20577;-73
2024/02/07 11:12:22;;;;;;;3.30;3.00;;;10.70;99.90;;;;;;4986706;28;20469;-73
2024/02/07 11:15:10;;;;;;;6.10;3.40;;;10.70;99.90;;;;;;5000072;28;20994;-73
2024/02/07 11:17:56;;;;;;;9.10;3.63;;;10.70;99.90;;;;;;4991642;28;20497;-73
2024/02/07 11:20:45;;;;;;;4.27;2.67;;;10.70;99.90;;;;;;4989157;28;20452;-73
2024/02/07 11:23:37;;;;;;;4.13;2.77;;;10.80;99.90;;;;;;4995189;28;20452;-73
2024/02/07 11:26:23;;;;;;;6.77;3.43;;;10.80;99.90;;;;;;4995038;28;20431;-74
2024/02/07 11:29:11;;;;;;;8.97;2.90;;;10.80;99.90;;;;;;4999115;28;20513;-73
2024/02/07 11:31:57;;;;;;;3.43;2.40;;;10.80;99.90;;;;;;4995830;28;21524;-73
2024/02/07 11:34:43;;;;;;;8.03;4.03;;;10.80;99.90;;;;;;4999436;28;20460;-73
2024/02/07 11:37:37;;;;;;;4.00;2.90;;;10.80;99.90;;;;;;4990932;28;20947;-73
2024/02/07 11:40:26;;;;;;;4.10;2.60;;;10.80;99.90;;;;;;4991020;28;20432;-73
2024/02/07 11:43:19;;;;;;;4.60;3.23;;;10.80;99.90;;;;;;5002603;28;20576;-74
2024/02/07 11:46:06;;;;;;;5.80;2.90;;;10.80;99.90;;;;;;5003707;28;21012;-74
2024/02/07 11:48:53;;;;;;;11.33;3.10;;;10.80;99.90;;;;;;5010254;28;20479;-73
2024/02/07 11:51:39;;;;;;;5.20;3.73;;;10.80;99.90;;;;;;4993222;28;20437;-73
2024/02/07 11:54:30;;;;;;;3.50;2.53;;;10.80;99.90;;;;;;4999164;28;20757;-74
2024/02/07 11:57:17;;;;;;;9.60;3.40;;;10.80;99.90;;;;;;5005479;28;20518;-73
2024/02/07 12:00:04;;;;;;;7.90;3.53;;;10.80;99.90;;;;;;5003938;28;20986;-73
2024/02/07 12:02:50;;;;;;;5.23;3.20;;;10.80;99.90;;;;;;5011127;28;20436;-73
2024/02/07 12:05:35;;;;;;;11.00;3.10;;;10.80;99.90;;;;;;4992465;28;20452;-73
2024/02/07 12:08:22;;;;;;;6.30;3.10;;;10.80;99.90;;;;;;4994603;28;20566;-73
2024/02/07 12:11:09;;;;;;;4.07;3.13;;;10.80;99.90;;;;;;5002191;28;20998;-73
2024/02/07 12:13:57;;;;;;;5.00;3.50;;;10.80;99.90;;;;;;5011027;28;20817;-73
2024/02/07 12:16:42;;;;;;;7.87;3.53;;;10.80;99.90;;;;;;4997246;28;20617;-73
2024/02/07 12:19:28;;;;;;;5.50;2.87;;;10.80;99.90;;;;;;4991829;28;20421;-73
2024/02/07 12:22:18;;;;;;;4.23;2.60;;;10.70;99.90;;;;;;4997132;28;20432;-73
2024/02/07 12:25:05;;;;;;;6.93;3.27;;;10.80;99.90;;;;;;5004531;28;20448;-74
2024/02/07 12:27:51;;;;;;;9.00;3.00;;;10.70;99.90;;;;;;4998232;28;20434;-73
2024/02/07 12:30:37;;;;;;;5.43;3.40;;;10.70;99.90;;;;;;4992738;28;20437;-73
2024/02/07 12:33:24;;;;;;;7.00;3.03;;;10.80;99.90;;;;;;4991063;28;20433;-73
2024/02/07 12:36:10;;;;;;;5.60;3.23;;;10.80;99.90;;;;;;5005069;28;20427;-73
2024/02/07 12:38:55;;;;;;;3.43;2.90;;;10.80;99.90;;;;;;4999696;28;20438;-73
2024/02/07 12:41:41;;;;;;;7.17;3.90;;;10.80;99.90;;;;;;4993094;28;20542;-74
2024/02/07 12:44:28;;;;;;;7.20;3.50;;;10.80;99.90;;;;;;4987955;28;20595;-74
2024/02/07 12:47:14;;;;;;;7.93;2.97;;;10.80;99.90;;;;;;4999418;28;20473;-74
2024/02/07 12:50:00;;;;;;;8.10;3.20;;;10.70;99.90;;;;;;4989872;28;20443;-72
2024/02/07 12:52:46;;;;;;;5.83;3.30;;;10.80;99.90;;;;;;4995279;28;20433;-73
2024/02/07 12:55:32;;;;;;;6.57;3.23;;;10.80;99.90;;;;;;4998065;28;20453;-74
2024/02/07 12:58:18;;;;;;;3.90;3.00;;;10.80;99.90;;;;;;4995461;28;20645;-74
2024/02/07 13:01:05;;;;;;;6.57;3.90;;;10.70;99.90;;;;;;4992655;28;20449;-74
2024/02/07 13:03:50;;;;;;;4.90;3.07;;;10.70;99.90;;;;;;4994770;28;20481;-74
2024/02/07 13:06:36;;;;;;;4.57;3.30;;;10.70;99.90;;;;;;4996248;28;20449;-74
2024/02/07 13:09:22;;;;;;;9.67;4.30;;;10.60;99.90;;;;;;4998025;28;20657;-74
2024/02/07 13:12:09;;;;;;;7.33;3.50;;;10.60;99.90;;;;;;4998987;28;20452;-74
2024/02/07 13:14:54;;;;;;;6.00;3.47;;;10.60;99.90;;;;;;5003272;28;20553;-74
2024/02/07 13:17:41;;;;;;;3.73;2.77;;;10.60;99.90;;;;;;4998637;28;20549;-74
2024/02/07 13:20:27;;;;;;;6.53;3.60;;;10.60;99.90;;;;;;4990512;28;20448;-74
2024/02/07 13:23:13;;;;;;;5.80;3.37;;;10.60;99.90;;;;;;4997155;28;20448;-74
2024/02/07 13:25:58;;;;;;;11.23;3.67;;;10.60;99.90;;;;;;5001549;28;20511;-74
2024/02/07 13:28:44;;;;;;;10.73;3.53;;;10.60;99.90;;;;;;4999788;28;20975;-73
2024/02/07 13:31:29;;;;;;;9.60;3.23;;;10.60;99.90;;;;;;4992645;28;21063;-74
2024/02/07 13:34:17;;;;;;;7.43;3.43;;;10.60;99.90;;;;;;5002321;28;21001;-73
2024/02/07 13:37:03;;;;;;;5.07;3.50;;;10.60;99.90;;;;;;4997219;28;20454;-73
2024/02/07 13:39:48;;;;;;;5.40;3.43;;;10.50;99.90;;;;;;5004307;28;20434;-73
2024/02/07 13:42:37;;;;;;;5.67;3.17;;;10.50;99.90;;;;;;5006171;28;20531;-73
2024/02/07 13:45:22;;;;;;;8.30;3.70;;;10.50;99.90;;;;;;5018745;23;20488;-77
2024/02/07 13:48:08;;;;;;;4.83;3.20;;;10.50;99.90;;;;;;4998139;28;20442;-75
2024/02/07 13:50:56;;;;;;;5.47;3.70;;;10.50;99.90;;;;;;4997624;28;20471;-75
2024/02/07 13:53:42;;;;;;;5.40;3.10;;;10.50;99.90;;;;;;4998232;28;20982;-76
2024/02/07 13:56:28;;;;;;;4.47;3.47;;;10.60;99.90;;;;;;4975642;28;20516;-77
2024/02/07 13:59:14;;;;;;;6.13;4.03;;;10.60;99.90;;;;;;4973661;28;20501;-77
2024/02/07 14:02:01;;;;;;;6.40;3.50;;;10.60;99.90;;;;;;4975424;28;20456;-77
2024/02/07 14:04:47;;;;;;;6.50;3.80;;;10.60;99.90;;;;;;4982659;28;20527;-77
2024/02/07 14:07:33;;;;;;;4.80;3.50;;;10.60;99.90;;;;;;4983149;28;20444;-76
2024/02/07 14:10:19;;;;;;;5.87;3.77;;;10.60;99.90;;;;;;4977229;28;20441;-77
2024/02/07 14:13:07;;;;;;;5.60;3.50;;;10.60;99.90;;;;;;4986725;28;20461;-76
2024/02/07 14:15:53;;;;;;;5.30;3.03;;;10.60;99.90;;;;;;4981269;28;20604;-77
2024/02/07 14:18:38;;;;;;;5.30;3.23;;;10.60;99.90;;;;;;4975973;28;20612;-74
2024/02/07 14:21:25;;;;;;;5.80;3.43;;;10.70;99.90;;;;;;4983675;28;20586;-77
2024/02/07 14:24:12;;;;;;;9.00;3.83;;;10.60;99.90;;;;;;4971865;28;20440;-77
2024/02/07 14:26:57;;;;;;;5.53;3.63;;;10.70;99.90;;;;;;4976903;28;20464;-75
2024/02/07 14:29:43;;;;;;;5.20;3.30;;;10.70;99.90;;;;;;4978362;28;20441;-77
2024/02/07 14:32:29;;;;;;;4.57;3.23;;;10.60;99.90;;;;;;4978268;28;20448;-76
2024/02/07 14:35:15;;;;;;;5.30;2.90;;;10.70;99.90;;;;;;4984042;28;20523;-77
2024/02/07 14:38:00;;;;;;;4.97;3.07;;;10.70;99.90;;;;;;4976219;28;20493;-76
2024/02/07 14:40:47;;;;;;;3.60;2.90;;;10.70;99.90;;;;;;4980117;28;20449;-77
2024/02/07 14:43:33;;;;;;;5.27;3.43;;;10.70;99.90;;;;;;4980176;28;20463;-75
2024/02/07 14:46:19;;;;;;;11.30;3.50;;;10.70;99.90;;;;;;4975272;28;20485;-76
2024/02/07 14:49:04;;;;;;;6.37;3.50;;;10.70;99.90;;;;;;4981458;28;20544;-74
2024/02/07 14:51:50;;;;;;;12.60;3.50;;;10.70;99.90;;;;;;4975722;28;20804;-76
2024/02/07 14:54:36;;;;;;;5.80;3.03;;;10.70;99.90;;;;;;4975863;28;20535;-77
2024/02/07 14:57:23;;;;;;;5.90;3.30;;;10.70;99.90;;;;;;4978924;28;20472;-76
2024/02/07 15:00:09;;;;;;;5.80;4.20;;;10.70;99.90;;;;;;4978865;28;20459;-77
2024/02/07 15:02:55;;;;;;;10.40;3.57;;;10.60;99.90;;;;;;4980721;28;20967;-76
2024/02/07 15:05:40;;;;;;;5.33;3.70;;;10.60;99.90;;;;;;4972092;28;20547;-76
2024/02/07 15:08:26;;;;;;;6.90;3.17;;;10.60;99.90;;;;;;4972917;28;20945;-77
2024/02/07 15:11:11;;;;;;;5.97;3.50;;;10.60;99.90;;;;;;4981281;28;20742;-77
2024/02/07 15:14:01;;;;;;;5.87;3.53;;;10.60;99.90;;;;;;4984201;28;20948;-76
2024/02/07 15:16:46;;;;;;;9.00;4.10;;;10.50;99.90;;;;;;4984785;28;20966;-77
2024/02/07 15:19:32;;;;;;;6.50;4.17;;;10.50;99.90;;;;;;4976576;28;20472;-76
2024/02/07 15:22:18;;;;;;;5.30;3.50;;;10.50;99.90;;;;;;4975749;28;20486;-76
2024/02/07 15:25:05;;;;;;;7.03;4.67;;;10.40;99.90;;;;;;4982343;28;20455;-77
2024/02/07 15:27:50;;;;;;;7.53;3.97;;;10.50;99.90;;;;;;4980662;28;20453;-76
2024/02/07 15:30:38;;;;;;;8.90;3.83;;;10.40;99.90;;;;;;4979235;28;20456;-76
2024/02/07 15:33:24;;;;;;;5.87;4.43;;;10.40;99.90;;;;;;4978829;28;20451;-77